createdAt,value
2023-05-12T00:02:16.365Z,49.20
2023-05-12T00:07:21.924Z,49.20
2023-05-12T00:12:25.332Z,49.40
2023-05-12T00:17:28.393Z,49.40
2023-05-12T00:22:32.684Z,49.30
2023-05-12T00:27:35.568Z,49.30
2023-05-12T00:32:38.421Z,49.20
2023-05-12T00:37:42.680Z,49.30
2023-05-12T00:42:45.691Z,49.40
2023-05-12T00:47:48.602Z,49.30
2023-05-12T00:52:53.116Z,49.20
2023-05-12T00:57:56.669Z,49.30
2023-05-12T01:02:59.599Z,49.20
2023-05-12T01:08:04.474Z,49.20
2023-05-12T01:13:07.284Z,49.30
2023-05-12T01:18:11.929Z,49.30
2023-05-12T01:23:20.057Z,49.20
2023-05-12T01:28:24.672Z,49.10
2023-05-12T01:33:27.594Z,49.30
2023-05-12T01:38:30.541Z,49.20
2023-05-12T01:43:34.685Z,49.20
2023-05-12T01:48:37.521Z,49.30
2023-05-12T01:53:41.672Z,49.50
2023-05-12T01:58:46.198Z,49.50
2023-05-12T02:03:49.060Z,49.50
2023-05-12T02:08:52.684Z,49.40
2023-05-12T02:13:57.173Z,49.70
2023-05-12T02:19:00.372Z,49.40
2023-05-12T02:24:03.316Z,49.60
2023-05-12T02:29:07.516Z,49.50
2023-05-12T02:34:10.333Z,49.70
2023-05-12T02:39:13.494Z,49.50
2023-05-12T02:44:17.950Z,49.60
2023-05-12T02:49:21.226Z,49.40
2023-05-12T02:54:24.057Z,49.30
2023-05-12T02:59:28.765Z,49.40
2023-05-12T03:04:33.067Z,49.30
2023-05-12T03:09:36.016Z,49.70
2023-05-12T03:14:40.218Z,49.60
2023-05-12T03:19:43.393Z,49.30
2023-05-12T03:24:47.480Z,49.40
2023-05-12T03:29:52.153Z,49.50
2023-05-12T03:34:55.128Z,49.30
2023-05-12T03:39:58.590Z,49.60
2023-05-12T03:45:02.816Z,49.60
2023-05-12T03:50:07.475Z,49.40
2023-05-12T03:55:10.865Z,49.60
2023-05-12T04:00:16.214Z,49.50
2023-05-12T04:05:19.362Z,49.50
2023-05-12T04:10:23.348Z,49.60
2023-05-12T04:15:27.573Z,49.40
2023-05-12T04:20:30.601Z,49.50
2023-05-12T04:25:34.809Z,49.50
2023-05-12T04:30:40.276Z,49.60
2023-05-12T04:35:43.153Z,49.30
2023-05-12T04:40:45.943Z,49.40
2023-05-12T04:45:52.191Z,49.30
2023-05-12T04:50:55.530Z,49.40
2023-05-12T04:55:58.693Z,49.40
2023-05-12T05:01:02.926Z,49.30
2023-05-12T05:06:05.891Z,49.30
2023-05-12T05:11:09.730Z,49.50
2023-05-12T05:16:13.961Z,49.60
2023-05-12T05:21:16.873Z,49.50
2023-05-12T05:26:21.499Z,49.30
2023-05-12T05:31:28.597Z,49.40
2023-05-12T05:36:31.795Z,49.40
2023-05-12T05:41:34.696Z,49.50
2023-05-12T05:46:38.962Z,49.00
2023-05-12T05:51:41.846Z,49.20
2023-05-12T05:56:44.647Z,49.30
2023-05-12T06:01:48.851Z,49.00
2023-05-12T06:06:51.700Z,49.20
2023-05-12T06:11:54.570Z,49.30
2023-05-12T06:16:58.868Z,49.10
2023-05-12T06:22:01.777Z,49.20
2023-05-12T06:27:04.681Z,49.00
2023-05-12T06:32:09.477Z,49.00
2023-05-12T06:37:12.398Z,49.20
2023-05-12T06:42:15.549Z,48.90
2023-05-12T06:47:19.726Z,48.90
2023-05-12T06:52:23.981Z,49.00
2023-05-12T06:57:26.839Z,48.90
2023-05-12T07:02:31.330Z,49.10
2023-05-12T07:07:35.583Z,48.80
2023-05-12T07:12:39.257Z,49.10
2023-05-12T07:17:43.580Z,48.80
2023-05-12T07:22:46.497Z,48.70
2023-05-12T07:27:49.846Z,48.70
2023-05-12T07:32:54.147Z,48.90
2023-05-12T07:37:57.149Z,48.90
2023-05-12T07:42:59.970Z,48.80
2023-05-12T07:48:04.514Z,48.80
2023-05-12T07:53:07.448Z,48.40
2023-05-12T07:58:11.450Z,48.60
2023-05-12T08:03:16.318Z,47.80
2023-05-12T08:08:19.699Z,47.80
2023-05-12T08:13:23.059Z,47.70
2023-05-12T08:18:27.373Z,47.70
2023-05-12T08:23:30.205Z,47.90
2023-05-12T08:28:33.163Z,47.90
2023-05-12T08:33:37.405Z,47.80
2023-05-12T08:38:40.385Z,47.80
2023-05-12T08:43:45.340Z,47.90
2023-05-12T08:48:51.493Z,47.90
2023-05-12T08:53:54.650Z,47.70
2023-05-12T08:58:59.257Z,47.80
2023-05-12T09:04:03.945Z,47.80
2023-05-12T09:09:07.868Z,48.00
2023-05-12T09:14:20.075Z,47.80
2023-05-12T09:19:24.554Z,47.90
2023-05-12T09:24:35.043Z,47.90
2023-05-12T09:29:57.955Z,47.90
2023-05-12T09:35:11.062Z,47.60
2023-05-12T09:40:14.495Z,47.90
2023-05-12T09:45:17.344Z,47.80
2023-05-12T09:50:23.632Z,47.90
2023-05-12T09:55:26.474Z,47.90
2023-05-12T10:00:43.366Z,47.90
2023-05-12T10:05:54.854Z,47.70
2023-05-12T10:11:00.790Z,47.80
2023-05-12T10:16:03.917Z,47.80
2023-05-12T10:21:08.223Z,47.70
2023-05-12T10:26:11.499Z,47.70
2023-05-12T10:31:14.671Z,47.60
2023-05-12T10:36:20.289Z,47.90
2023-05-12T10:41:33.529Z,47.70
2023-05-12T10:46:37.153Z,47.70
2023-05-12T10:51:49.817Z,47.80
2023-05-12T10:56:55.308Z,47.70
2023-05-12T11:02:04.027Z,47.60
2023-05-12T11:07:11.710Z,47.50
2023-05-12T11:12:15.782Z,47.60
2023-05-12T11:17:18.603Z,47.30
2023-05-12T11:22:23.528Z,47.60
2023-05-12T11:27:26.452Z,47.70
2023-05-12T11:32:29.823Z,47.60
2023-05-12T11:37:39.911Z,47.20
2023-05-12T11:42:48.232Z,47.30
2023-05-12T11:47:51.215Z,47.50
2023-05-12T11:52:55.628Z,47.40
2023-05-12T11:58:00.411Z,47.30
2023-05-12T12:03:16.592Z,47.60
2023-05-12T12:08:21.001Z,47.30
2023-05-12T12:13:28.900Z,47.50
2023-05-12T12:18:31.794Z,47.40
2023-05-12T12:23:49.894Z,47.50
2023-05-12T12:28:53.977Z,47.50
2023-05-12T12:33:56.870Z,47.50
2023-05-12T12:39:01.109Z,47.10
2023-05-12T12:44:03.990Z,47.30
2023-05-12T12:49:06.896Z,47.40
2023-05-12T12:54:11.113Z,47.40
2023-05-12T12:59:13.950Z,47.30
2023-05-12T13:04:19.587Z,47.40
2023-05-12T13:09:24.436Z,47.30
2023-05-12T13:14:27.277Z,47.30
2023-05-12T13:19:31.240Z,47.30
2023-05-12T13:24:35.416Z,47.20
2023-05-12T13:29:38.481Z,47.30
2023-05-12T13:34:41.725Z,47.20
2023-05-12T13:39:45.906Z,46.80
2023-05-12T13:44:49.026Z,46.90
2023-05-12T13:49:52.237Z,47.00
2023-05-12T13:54:56.448Z,47.00
2023-05-12T13:59:59.281Z,46.80
2023-05-12T14:05:02.254Z,46.60
2023-05-12T14:10:07.590Z,46.90
2023-05-12T14:15:23.617Z,46.80
2023-05-12T14:20:29.192Z,46.40
2023-05-12T14:25:33.577Z,46.40
2023-05-12T14:30:38.216Z,46.40
2023-05-12T14:35:41.345Z,46.20
2023-05-12T14:40:47.557Z,46.10
2023-05-12T14:45:54.260Z,45.90
2023-05-12T14:50:57.788Z,45.90
2023-05-12T14:56:02.039Z,45.60
2023-05-12T15:01:06.342Z,45.60
2023-05-12T15:06:11.452Z,45.50
2023-05-12T15:11:15.922Z,44.20
2023-05-12T15:16:19.255Z,43.60
2023-05-12T15:21:22.380Z,42.60
2023-05-12T15:26:32.713Z,42.40
2023-05-12T15:31:37.729Z,41.80
2023-05-12T15:36:40.734Z,41.90
2023-05-12T15:41:44.876Z,41.90
2023-05-12T15:46:47.799Z,41.40
2023-05-12T15:51:50.787Z,39.80
2023-05-12T15:56:54.991Z,39.10
2023-05-12T16:01:58.632Z,38.80
2023-05-12T16:07:02.040Z,38.70
2023-05-12T16:12:09.229Z,40.40
2023-05-12T16:17:12.264Z,41.80
2023-05-12T16:22:15.425Z,42.00
2023-05-12T16:27:22.148Z,42.80
2023-05-12T16:32:25.016Z,43.50
2023-05-12T16:37:28.213Z,44.60
2023-05-12T16:42:32.355Z,45.00
2023-05-12T16:47:35.494Z,45.20
2023-05-12T16:52:38.430Z,45.30
2023-05-12T16:57:43.536Z,45.30
2023-05-12T17:02:46.567Z,45.60
2023-05-12T17:07:51.036Z,45.70
2023-05-12T17:12:55.230Z,45.90
2023-05-12T17:17:58.159Z,46.00
2023-05-12T17:23:01.354Z,46.00
2023-05-12T17:28:06.063Z,46.30
2023-05-12T17:33:08.895Z,46.20
2023-05-12T17:38:12.230Z,46.50
2023-05-12T17:43:16.363Z,46.60
2023-05-12T17:48:19.202Z,46.50
2023-05-12T17:53:22.041Z,46.60
2023-05-12T17:58:26.424Z,46.70
2023-05-12T18:03:29.331Z,46.80
2023-05-12T18:08:32.255Z,46.80
2023-05-12T18:13:36.456Z,46.90
2023-05-12T18:18:39.342Z,47.20
2023-05-12T18:23:42.480Z,47.10
2023-05-12T18:28:46.760Z,47.00
2023-05-12T18:33:50.353Z,47.30
2023-05-12T18:38:53.162Z,47.40
2023-05-12T18:43:58.330Z,47.40
2023-05-12T18:49:01.606Z,47.50
2023-05-12T18:54:04.834Z,47.60
2023-05-12T18:59:09.455Z,47.90
2023-05-12T19:04:12.521Z,48.00
2023-05-12T19:09:15.648Z,48.00
2023-05-12T19:14:20.238Z,47.90
2023-05-12T19:19:23.040Z,47.90
2023-05-12T19:24:26.810Z,48.00
2023-05-12T19:29:31.010Z,47.90
2023-05-12T19:34:33.970Z,48.20
2023-05-12T19:39:36.813Z,48.00
2023-05-12T19:44:40.963Z,48.00
2023-05-12T19:49:43.832Z,47.90
2023-05-12T19:54:46.802Z,47.90
2023-05-12T19:59:50.983Z,48.10
2023-05-12T20:04:53.835Z,47.90
2023-05-12T20:09:56.639Z,48.00
2023-05-12T20:15:00.819Z,47.90
2023-05-12T20:20:04.241Z,48.00
2023-05-12T20:25:07.683Z,47.90
2023-05-12T20:30:13.209Z,47.90
2023-05-12T20:35:16.728Z,47.90
2023-05-12T20:40:20.072Z,48.10
2023-05-12T20:45:24.337Z,48.10
2023-05-12T20:50:27.895Z,48.10
2023-05-12T20:55:32.943Z,48.10
2023-05-12T21:00:37.180Z,48.00
2023-05-12T21:05:41.642Z,48.10
2023-05-12T21:10:44.514Z,48.00
2023-05-12T21:15:48.693Z,48.00
2023-05-12T21:20:51.933Z,48.00
2023-05-12T21:25:54.859Z,48.20
2023-05-12T21:30:59.063Z,48.00
2023-05-12T21:36:01.968Z,48.00
2023-05-12T21:41:04.900Z,48.10
2023-05-12T21:46:09.108Z,47.90
2023-05-12T21:51:13.115Z,48.20
2023-05-12T21:56:16.534Z,48.10
2023-05-12T22:01:21.308Z,47.90
2023-05-12T22:06:24.315Z,47.90
2023-05-12T22:11:27.201Z,48.00
2023-05-12T22:16:41.210Z,48.10
2023-05-12T22:21:45.686Z,47.90
2023-05-12T22:26:48.541Z,48.00
2023-05-12T22:31:52.692Z,48.20
2023-05-12T22:36:55.711Z,48.10
2023-05-12T22:41:58.510Z,48.10
2023-05-12T22:47:02.773Z,48.20
2023-05-12T22:52:06.526Z,48.10
2023-05-12T22:57:09.302Z,48.30
2023-05-12T23:02:16.723Z,48.40
2023-05-12T23:07:19.569Z,48.20
2023-05-12T23:12:22.368Z,48.20
2023-05-12T23:17:27.434Z,48.20
2023-05-12T23:22:30.346Z,48.20
2023-05-12T23:27:33.231Z,48.10
2023-05-12T23:32:37.608Z,48.50
2023-05-12T23:37:40.572Z,48.20
2023-05-12T23:42:43.418Z,48.20
2023-05-12T23:47:47.684Z,48.30
2023-05-12T23:52:53.203Z,48.40
2023-05-12T23:57:56.077Z,48.40
